Time;durP1;ratioP1;P1;durP2;ratioP2;P2;SDS_P1;SDS_P2;PMS_P1;PMS_P2;Temp;Humidity;BMP_temperature;BMP_pressure;BME280_temperature;BME280_humidity;BME280_pressure;Samples;Min_cycle;Max_cycle;Signal;HPM_P1;HPM_P2
2021/03/23 00:01:01;;;;;;;8.70;5.13;;;;;;;5.21;70.09;100228.75;1987038;78;22611;-74
2021/03/23 00:04:10;;;;;;;9.16;5.47;;;;;;;5.24;69.65;100231.41;1990513;81;20355;-75
2021/03/23 00:07:12;;;;;;;10.21;5.41;;;;;;;5.26;69.34;100237.47;1991274;81;20426;-74
2021/03/23 00:10:22;;;;;;;10.09;5.50;;;;;;;5.25;69.61;100233.16;1991981;81;20330;-74
2021/03/23 00:13:24;;;;;;;8.57;5.47;;;;;;;5.22;70.08;100236.50;1991287;81;20356;-74
2021/03/23 00:16:29;;;;;;;11.06;5.41;;;;;;;5.18;70.46;100241.50;1987991;78;21202;-74
2021/03/23 00:19:30;;;;;;;9.18;5.80;;;;;;;5.13;70.96;100233.63;1986343;81;20440;-74
2021/03/23 00:22:34;;;;;;;11.16;6.51;;;;;;;5.12;71.15;100239.63;1986214;81;20308;-74
2021/03/23 00:25:36;;;;;;;9.80;6.38;;;;;;;5.15;70.28;100244.84;1986204;81;21116;-75
2021/03/23 00:28:39;;;;;;;9.50;5.50;;;;;;;5.14;70.39;100236.25;1986672;81;20324;-75
2021/03/23 00:31:40;;;;;;;9.23;5.91;;;;;;;5.15;71.35;100244.84;1989026;78;20763;-75
2021/03/23 00:34:43;;;;;;;8.49;5.86;;;;;;;5.11;72.19;100238.75;2038725;70;20747;-69
2021/03/23 00:37:50;;;;;;;8.60;5.97;;;;;;;5.11;72.55;100246.47;1991474;81;20341;-69
2021/03/23 00:40:52;;;;;;;11.24;5.56;;;;;;;5.09;72.99;100242.09;1990870;81;20364;-69
2021/03/23 00:43:54;;;;;;;8.81;5.04;;;;;;;5.06;73.70;100245.47;1991114;81;20299;-69
2021/03/23 00:46:56;;;;;;;7.94;5.46;;;;;;;5.06;74.03;100247.16;1993939;81;28630;-69
2021/03/23 00:49:58;;;;;;;7.47;5.09;;;;;;;5.03;74.18;100245.38;1996396;81;20373;-69
2021/03/23 00:52:59;;;;;;;6.71;4.55;;;;;;;5.02;73.78;100245.28;1996810;81;21217;-69
2021/03/23 00:56:01;;;;;;;7.74;4.76;;;;;;;5.00;73.67;100241.81;1996507;81;20399;-69
2021/03/23 00:59:03;;;;;;;6.38;4.82;;;;;;;4.98;73.12;100251.16;1996999;81;21189;-69
2021/03/23 01:02:05;;;;;;;6.72;4.85;;;;;;;4.97;73.27;100247.72;1991104;78;21773;-70
2021/03/23 01:05:07;;;;;;;5.72;4.24;;;;;;;4.92;73.54;100238.13;1991096;81;21309;-69
2021/03/23 01:08:09;;;;;;;6.90;4.26;;;;;;;4.94;73.79;100236.47;1990756;81;20287;-69
2021/03/23 01:11:10;;;;;;;7.74;4.72;;;;;;;4.90;73.83;100234.63;1991000;81;20388;-69
2021/03/23 01:14:12;;;;;;;7.45;5.31;;;;;;;4.88;74.17;100239.72;1991239;81;20311;-69
2021/03/23 01:17:14;;;;;;;8.24;4.50;;;;;;;4.84;74.46;100235.28;1993626;78;20773;-69
2021/03/23 01:20:18;;;;;;;7.07;4.54;;;;;;;4.82;74.40;100230.09;1996292;81;20342;-69
2021/03/23 01:23:20;;;;;;;6.59;4.44;;;;;;;4.78;74.78;100228.25;1995396;81;20321;-69
2021/03/23 01:26:22;;;;;;;5.40;4.26;;;;;;;4.77;74.93;100230.78;1996650;81;20318;-69
2021/03/23 01:29:23;;;;;;;7.00;4.49;;;;;;;4.73;75.23;100228.94;1996499;81;20345;-69
2021/03/23 01:32:25;;;;;;;9.13;4.44;;;;;;;4.68;75.07;100226.22;1994767;79;21313;-69
2021/03/23 01:35:27;;;;;;;7.49;4.86;;;;;;;4.68;75.11;100231.38;1995864;81;20329;-69
2021/03/23 01:38:29;;;;;;;7.91;4.57;;;;;;;4.68;75.30;100226.22;1996215;81;20345;-69
2021/03/23 01:41:31;;;;;;;6.41;4.65;;;;;;;4.68;75.64;100235.66;1995847;81;20339;-69
2021/03/23 01:44:33;;;;;;;6.75;4.66;;;;;;;4.66;75.90;100235.56;1995542;81;20325;-69
2021/03/23 01:47:35;;;;;;;7.66;4.54;;;;;;;4.65;75.65;100232.94;1991232;79;20331;-69
2021/03/23 01:50:37;;;;;;;7.20;4.56;;;;;;;4.62;75.48;100231.16;1991690;81;20475;-69
2021/03/23 01:53:52;;;;;;;6.44;4.88;;;;;;;4.61;75.57;100226.84;1991105;81;20349;-69
2021/03/23 01:56:56;;;;;;;8.16;5.60;;;;;;;4.59;75.70;100225.91;1990824;81;20384;-69
2021/03/23 01:59:59;;;;;;;7.97;5.47;;;;;;;4.59;74.91;100223.34;1991477;81;20358;-69
2021/03/23 02:03:04;;;;;;;9.14;5.18;;;;;;;4.61;74.50;100228.53;1994933;78;20837;-69
2021/03/23 02:06:46;;;;;;;9.11;5.69;;;;;;;4.62;74.48;100225.13;1996393;81;20367;-69
2021/03/23 02:09:53;;;;;;;8.94;5.05;;;;;;;4.59;75.38;100223.34;1996407;81;20339;-69
2021/03/23 02:12:56;;;;;;;8.91;4.78;;;;;;;4.53;75.88;100218.88;1996107;81;20349;-69
2021/03/23 02:15:57;;;;;;;8.11;4.93;;;;;;;4.49;75.81;100216.16;1995117;78;21596;-68
2021/03/23 02:18:59;;;;;;;8.06;5.13;;;;;;;4.48;75.80;100220.41;1995926;81;20905;-68
2021/03/23 02:22:01;;;;;;;6.28;4.64;;;;;;;4.48;75.60;100215.25;1996130;81;20333;-69
2021/03/23 02:25:08;;;;;;;5.69;4.11;;;;;;;4.48;76.09;100215.25;1995847;81;20335;-69
2021/03/23 02:28:10;;;;;;;5.45;4.72;;;;;;;4.48;76.63;100219.53;1995290;81;20321;-69
2021/03/23 02:31:11;;;;;;;7.07;4.84;;;;;;;4.39;76.97;100222.69;1993532;78;24926;-69
2021/03/23 02:34:16;;;;;;;6.55;4.79;;;;;;;4.36;76.95;100217.44;1990754;81;20335;-69
2021/03/23 02:37:18;;;;;;;7.82;4.51;;;;;;;4.35;76.61;100218.28;1991082;81;20344;-69
2021/03/23 02:40:20;;;;;;;9.00;4.41;;;;;;;4.33;76.49;100216.47;1991127;81;20315;-69
2021/03/23 02:43:22;;;;;;;6.22;4.40;;;;;;;4.34;76.48;100225.94;1990725;81;20350;-69
2021/03/23 02:46:23;;;;;;;7.04;4.57;;;;;;;4.35;76.53;100225.97;1992305;79;20351;-69
2021/03/23 02:49:25;;;;;;;7.88;4.35;;;;;;;4.36;76.85;100219.16;1995748;81;20415;-69
2021/03/23 02:52:27;;;;;;;7.14;4.43;;;;;;;4.35;76.85;100217.41;1995748;81;20338;-69
2021/03/23 02:55:28;;;;;;;5.29;3.75;;;;;;;4.34;76.55;100216.53;1995301;81;20321;-69
2021/03/23 02:58:30;;;;;;;5.60;4.01;;;;;;;4.36;76.25;100222.59;1996370;81;20384;-69
2021/03/23 03:01:32;;;;;;;5.82;4.30;;;;;;;4.35;76.25;100222.53;1993102;79;20435;-69
2021/03/23 03:04:38;;;;;;;6.50;4.05;;;;;;;4.33;76.18;100225.06;1991961;81;20364;-70
2021/03/23 03:07:40;;;;;;;7.50;4.30;;;;;;;4.33;76.15;100229.34;1992420;81;20327;-69
2021/03/23 03:10:41;;;;;;;7.11;4.28;;;;;;;4.35;75.99;100225.13;1992308;81;20379;-70
2021/03/23 03:13:43;;;;;;;6.26;4.64;;;;;;;4.33;76.17;100227.63;1992385;81;20799;-69
2021/03/23 03:16:46;;;;;;;6.69;4.38;;;;;;;4.32;76.37;100225.00;1994817;78;20804;-69
2021/03/23 03:19:47;;;;;;;6.21;4.25;;;;;;;4.30;76.69;100230.06;1997668;81;20355;-69
2021/03/23 03:22:49;;;;;;;8.68;4.96;;;;;;;4.30;76.73;100229.19;1997323;81;20803;-69
2021/03/23 03:25:52;;;;;;;5.76;4.82;;;;;;;4.30;76.42;100227.50;1996494;81;20359;-69
2021/03/23 03:28:54;;;;;;;4.55;4.15;;;;;;;4.30;76.38;100231.78;1997708;81;20792;-69
2021/03/23 03:31:55;;;;;;;7.44;4.57;;;;;;;4.24;76.50;100229.88;1994046;78;20322;-69
2021/03/23 03:34:57;;;;;;;7.35;4.91;;;;;;;4.21;76.66;100225.50;1993229;81;20311;-69
2021/03/23 03:37:59;;;;;;;10.95;4.57;;;;;;;4.22;76.71;100224.69;1992942;81;20299;-69
2021/03/23 03:41:02;;;;;;;5.74;4.94;;;;;;;4.22;76.92;100229.81;1993275;81;20459;-69
2021/03/23 03:44:05;;;;;;;8.10;4.97;;;;;;;4.21;77.09;100225.50;1993173;81;20546;-69
2021/03/23 03:47:06;;;;;;;9.34;5.80;;;;;;;4.24;76.95;100220.47;1995198;78;20318;-69
2021/03/23 03:50:09;;;;;;;8.94;6.06;;;;;;;4.28;76.07;100233.41;1997668;81;20341;-68
2021/03/23 03:56:31;;;;;;;9.45;6.45;;;;;;;4.38;73.95;100230.34;2014740;70;21019;-69
2021/03/23 03:59:32;;;;;;;9.01;5.53;;;;;;;4.39;74.43;100229.53;1998595;81;20375;-68
2021/03/23 04:02:34;;;;;;;7.82;5.29;;;;;;;4.38;75.46;100222.63;2001280;77;22975;-68
2021/03/23 04:05:38;;;;;;;8.56;5.41;;;;;;;4.36;76.24;100232.00;2001669;80;20730;-68
2021/03/23 04:08:41;;;;;;;8.75;5.05;;;;;;;4.34;76.57;100228.50;2002066;81;20899;-68
2021/03/23 04:11:42;;;;;;;6.76;5.15;;;;;;;4.29;76.81;100225.75;2001965;81;20385;-68
2021/03/23 04:14:44;;;;;;;6.82;4.72;;;;;;;4.29;76.79;100224.88;2001690;80;20325;-68
2021/03/23 04:17:46;;;;;;;4.68;3.96;;;;;;;4.27;76.86;100223.97;2001008;80;24873;-69
2021/03/23 04:20:50;;;;;;;5.59;3.94;;;;;;;4.22;77.08;100219.53;2001568;81;20452;-68
2021/03/23 04:23:51;;;;;;;7.19;4.57;;;;;;;4.21;77.49;100227.22;2001414;81;20375;-68
2021/03/23 04:26:53;;;;;;;5.97;4.59;;;;;;;4.12;77.96;100230.31;2001915;81;20308;-68
2021/03/23 04:29:55;;;;;;;7.55;5.00;;;;;;;4.11;78.09;100235.41;2001985;81;20320;-68
2021/03/23 04:32:57;;;;;;;6.93;4.64;;;;;;;4.13;77.89;100233.75;2000786;78;20363;-69
2021/03/23 04:36:06;;;;;;;8.34;4.64;;;;;;;4.12;77.79;100232.88;2001865;81;20358;-68
2021/03/23 04:39:11;;;;;;;6.60;4.10;;;;;;;4.14;77.46;100236.41;2002308;81;20370;-68
2021/03/23 04:42:12;;;;;;;5.88;4.50;;;;;;;4.14;77.08;100231.28;2001499;81;20225;-68
2021/03/23 04:45:18;;;;;;;6.55;4.28;;;;;;;4.15;76.74;100230.44;2000574;78;20830;-69
2021/03/23 04:48:21;;;;;;;5.47;4.38;;;;;;;4.16;76.98;100233.88;2001252;81;20405;-68
2021/03/23 04:51:25;;;;;;;5.88;4.44;;;;;;;4.14;77.05;100236.41;2001471;80;20558;-68
2021/03/23 04:54:29;;;;;;;5.03;4.15;;;;;;;4.12;76.77;100230.31;2001411;81;20316;-68
2021/03/23 04:57:31;;;;;;;5.94;4.51;;;;;;;4.09;76.99;100235.34;2001997;81;20837;-69
2021/03/23 05:00:32;;;;;;;6.10;4.18;;;;;;;4.09;77.18;100250.78;2000318;77;22836;-68
2021/03/23 05:03:34;;;;;;;5.82;3.99;;;;;;;4.09;77.14;100247.31;2001415;80;20329;-68
2021/03/23 05:06:36;;;;;;;7.53;4.45;;;;;;;4.07;77.42;100255.00;2001630;81;20538;-68
2021/03/23 05:09:38;;;;;;;6.06;4.53;;;;;;;4.06;77.64;100257.50;2001748;80;20304;-68
2021/03/23 05:12:40;;;;;;;7.65;4.56;;;;;;;4.04;77.90;100254.88;2001322;81;20317;-69
2021/03/23 05:15:41;;;;;;;8.32;4.35;;;;;;;4.04;77.91;100254.88;1999948;78;21374;-69
2021/03/23 05:18:43;;;;;;;6.19;4.56;;;;;;;4.06;77.86;100252.38;2002017;81;20535;-68
2021/03/23 05:21:45;;;;;;;6.51;4.34;;;;;;;4.07;77.71;100257.56;2001614;81;20324;-68
2021/03/23 05:24:46;;;;;;;5.49;4.85;;;;;;;4.07;77.74;100261.81;2001507;80;20324;-70
2021/03/23 05:27:48;;;;;;;7.46;4.85;;;;;;;4.08;77.72;100267.00;2001513;80;20332;-68
2021/03/23 05:30:50;;;;;;;7.10;4.94;;;;;;;4.06;77.88;100258.38;2000942;77;21089;-69
2021/03/23 05:33:55;;;;;;;6.97;4.32;;;;;;;4.05;78.04;100264.34;2000819;80;20686;-68
2021/03/23 05:36:57;;;;;;;7.54;4.68;;;;;;;4.03;78.13;100259.97;2002210;80;20406;-68
2021/03/23 05:39:58;;;;;;;7.18;4.47;;;;;;;4.04;78.18;100267.72;2001728;80;20320;-68
2021/03/23 05:43:23;;;;;;;8.13;5.32;;;;;;;4.03;78.36;100272.81;2001260;80;20378;-68
2021/03/23 05:46:37;;;;;;;7.09;4.61;;;;;;;4.03;78.35;100260.84;2000776;78;22303;-68
2021/03/23 05:49:55;;;;;;;6.96;4.91;;;;;;;4.04;78.60;100256.56;2001524;81;20412;-68
2021/03/23 05:53:04;;;;;;;7.27;5.39;;;;;;;4.06;78.48;100260.94;2001716;81;20335;-68
2021/03/23 05:56:07;;;;;;;10.27;5.40;;;;;;;4.09;78.92;100268.75;2001504;81;20199;-68
2021/03/23 05:59:17;;;;;;;8.90;4.70;;;;;;;4.11;78.92;100269.69;2001657;81;20185;-68
2021/03/23 06:02:36;;;;;;;8.38;5.03;;;;;;;4.15;78.60;100270.69;2000776;77;20534;-69
2021/03/23 06:05:46;;;;;;;6.39;4.85;;;;;;;4.16;78.60;100272.44;2000773;80;20320;-69
2021/03/23 06:08:50;;;;;;;8.05;4.66;;;;;;;4.19;78.84;100269.97;2001665;80;20472;-68
2021/03/23 06:12:10;;;;;;;7.96;4.78;;;;;;;4.20;79.07;100272.59;1999163;81;20364;-68
2021/03/23 06:15:21;;;;;;;8.13;5.18;;;;;;;4.23;79.08;100271.81;1998172;78;20725;-69
2021/03/23 06:18:36;;;;;;;9.35;5.45;;;;;;;4.29;79.05;100279.75;1998590;81;20320;-69
2021/03/23 06:21:50;;;;;;;9.86;5.71;;;;;;;4.36;78.23;100275.69;1999755;81;20341;-68
2021/03/23 06:25:21;;;;;;;10.51;5.56;;;;;;;4.41;77.48;100280.16;1999044;81;20869;-68
2021/03/23 06:28:53;;;;;;;9.88;5.66;;;;;;;4.48;76.87;100279.53;1998926;81;20859;-69
2021/03/23 06:32:09;;;;;;;12.06;5.96;;;;;;;4.54;76.27;100281.47;1998301;78;24135;-69
2021/03/23 06:35:34;;;;;;;11.73;6.38;;;;;;;4.64;75.39;100282.66;1998824;80;20369;-69
2021/03/23 06:38:40;;;;;;;10.81;5.96;;;;;;;4.73;74.84;100288.97;1998751;81;20544;-69
2021/03/23 06:41:50;;;;;;;11.73;6.06;;;;;;;4.80;74.53;100290.94;1999130;81;20356;-69
2021/03/23 06:45:11;;;;;;;11.98;6.57;;;;;;;4.88;73.48;100285.19;1998405;80;20369;-71
2021/03/23 06:48:28;;;;;;;8.46;5.75;;;;;;;4.98;73.22;100287.19;1988886;79;21924;-70
2021/03/23 06:51:30;;;;;;;10.56;6.24;;;;;;;5.09;72.94;100291.00;1988496;81;20339;-70
2021/03/23 06:54:38;;;;;;;10.45;5.66;;;;;;;5.18;72.48;100299.00;1988765;81;21197;-72
2021/03/23 06:57:39;;;;;;;11.44;6.26;;;;;;;5.29;71.95;100301.94;1988304;81;20380;-73
2021/03/23 07:00:41;;;;;;;10.21;6.21;;;;;;;5.37;72.23;100303.91;1989960;78;31298;-70
2021/03/23 07:03:54;;;;;;;10.41;5.70;;;;;;;5.47;71.57;100310.22;2003180;80;20324;-71
2021/03/23 07:07:11;;;;;;;13.57;8.43;;;;;;;5.58;71.37;100308.00;2008271;80;20344;-70
2021/03/23 07:10:21;;;;;;;13.16;8.49;;;;;;;5.64;70.96;100303.88;2010083;80;20860;-71
2021/03/23 07:13:25;;;;;;;13.57;7.63;;;;;;;5.75;71.43;100307.66;2009696;80;20360;-71
2021/03/23 07:16:29;;;;;;;16.75;7.79;;;;;;;5.88;70.48;100310.59;2008975;78;22683;-73
2021/03/23 07:19:31;;;;;;;12.55;7.07;;;;;;;6.01;69.57;100313.59;2009666;80;20350;-72
2021/03/23 07:22:44;;;;;;;11.98;6.93;;;;;;;6.16;68.04;100314.88;2009901;80;20816;-71
2021/03/23 07:25:46;;;;;;;11.35;6.94;;;;;;;6.32;66.71;100317.91;2009409;80;20318;-74
2021/03/23 07:28:47;;;;;;;12.86;7.10;;;;;;;6.50;66.19;100312.38;2009487;80;20894;-71
2021/03/23 07:32:02;;;;;;;11.75;7.35;;;;;;;6.63;64.33;100314.44;2009393;78;20629;-71
2021/03/23 07:35:11;;;;;;;11.14;7.04;;;;;;;6.76;63.56;100317.34;2009441;80;20342;-71
2021/03/23 07:38:36;;;;;;;10.20;5.96;;;;;;;6.93;63.52;100311.75;2009796;80;20302;-71
2021/03/23 07:41:51;;;;;;;9.11;6.00;;;;;;;7.05;62.09;100316.38;2009328;80;20180;-71
2021/03/23 07:45:00;;;;;;;14.45;7.38;;;;;;;7.16;60.12;100316.63;2009948;80;20373;-72
2021/03/23 07:48:10;;;;;;;9.88;5.86;;;;;;;7.19;59.38;100325.34;1999317;78;22259;-71
2021/03/23 07:51:25;;;;;;;9.04;6.70;;;;;;;7.35;59.13;100317.91;1999939;81;20333;-71
2021/03/23 07:54:37;;;;;;;10.70;6.25;;;;;;;7.41;57.76;100323.25;1999120;81;20364;-72
2021/03/23 07:58:00;;;;;;;7.99;5.40;;;;;;;7.43;57.37;100324.16;1999560;81;20196;-71
2021/03/23 08:01:16;;;;;;;11.73;5.61;;;;;;;7.52;57.13;100326.94;2002341;77;20347;-72
2021/03/23 08:04:48;;;;;;;8.94;6.31;;;;;;;7.62;57.64;100321.16;2009880;80;20345;-72
2021/03/23 08:08:08;;;;;;;9.36;5.81;;;;;;;7.92;58.12;100325.25;2009776;80;20306;-71
2021/03/23 08:11:24;;;;;;;8.96;5.84;;;;;;;8.45;57.21;100323.78;2009480;80;20340;-72
2021/03/23 08:15:01;;;;;;;8.19;5.74;;;;;;;8.84;55.77;100327.94;2009631;80;20330;-71
2021/03/23 08:18:22;;;;;;;8.74;5.25;;;;;;;8.95;54.16;100324.66;1999228;78;21308;-71
2021/03/23 08:21:33;;;;;;;7.69;5.55;;;;;;;8.85;53.19;100335.72;1999527;81;20349;-71
2021/03/23 08:24:54;;;;;;;9.36;5.99;;;;;;;8.87;53.64;100340.94;1999336;81;20403;-71
2021/03/23 08:28:02;;;;;;;9.14;5.88;;;;;;;8.88;52.85;100334.91;1999810;81;20197;-71
2021/03/23 08:31:17;;;;;;;9.06;5.95;;;;;;;8.86;52.93;100342.66;1999082;78;25101;-71
2021/03/23 08:34:32;;;;;;;10.01;5.71;;;;;;;8.74;51.12;100338.13;1999323;81;20178;-71
2021/03/23 08:38:15;;;;;;;11.49;6.13;;;;;;;8.68;51.55;100330.25;1999346;81;20219;-71
2021/03/23 08:41:35;;;;;;;7.70;4.99;;;;;;;8.72;53.06;100337.22;1996394;81;20332;-71
2021/03/23 08:44:42;;;;;;;8.57;4.85;;;;;;;8.70;52.10;100333.72;1999440;81;20202;-71
2021/03/23 08:47:50;;;;;;;8.57;6.70;;;;;;;8.71;52.70;100344.97;2008003;78;21625;-71
2021/03/23 08:51:00;;;;;;;6.92;4.84;;;;;;;8.74;51.99;100345.88;2009927;80;20225;-71
2021/03/23 08:54:06;;;;;;;7.01;4.34;;;;;;;8.78;50.92;100354.56;2009816;80;20339;-71
2021/03/23 08:57:08;;;;;;;6.59;4.40;;;;;;;8.84;50.55;100354.72;2009986;80;20169;-72
2021/03/23 09:00:36;;;;;;;7.88;4.94;;;;;;;8.83;50.71;100358.16;2010094;80;20206;-71
2021/03/23 09:03:40;;;;;;;4.99;4.01;;;;;;;8.88;50.79;100355.63;2009472;80;20188;-72
2021/03/23 09:06:59;;;;;;;6.03;4.38;;;;;;;8.94;49.91;100353.13;2010196;80;20299;-71
2021/03/23 09:10:57;;;;;;;6.13;4.52;;;;;;;9.01;50.17;100350.69;2010476;80;20194;-71
2021/03/23 09:14:08;;;;;;;9.19;6.47;;;;;;;9.31;50.22;100344.25;1983792;80;20743;-71
2021/03/23 09:17:17;;;;;;;9.00;5.34;;;;;;;9.94;49.88;100343.47;2009588;78;51764;-71
2021/03/23 09:20:51;;;;;;;8.91;5.41;;;;;;;10.80;49.55;100353.19;2010581;80;20594;-72
2021/03/23 09:23:54;;;;;;;6.14;4.36;;;;;;;11.28;47.26;100344.06;2008245;80;20334;-72
2021/03/23 09:26:57;;;;;;;7.99;4.63;;;;;;;11.53;46.12;100340.81;2010311;80;20453;-72
2021/03/23 09:29:59;;;;;;;9.00;5.36;;;;;;;11.71;44.90;100342.66;2013409;80;20216;-72
2021/03/23 09:33:35;;;;;;;10.73;5.44;;;;;;;11.63;42.67;100345.19;1999630;78;74631;-71
2021/03/23 09:36:49;;;;;;;9.48;5.06;;;;;;;11.54;43.99;100345.16;1999931;81;20377;-72
2021/03/23 09:39:51;;;;;;;8.88;5.82;;;;;;;11.45;43.82;100345.94;2000213;81;20335;-72
2021/03/23 09:43:29;;;;;;;8.00;5.13;;;;;;;11.41;42.31;100349.38;2000062;80;20364;-72
2021/03/23 09:46:31;;;;;;;7.07;5.74;;;;;;;11.65;42.87;100345.19;2003812;78;20915;-72
2021/03/23 09:49:46;;;;;;;10.96;6.05;;;;;;;12.17;43.98;100350.72;2010061;80;20204;-72
2021/03/23 09:52:58;;;;;;;8.46;5.74;;;;;;;11.97;42.42;100348.91;2010347;80;20315;-72
2021/03/23 09:56:14;;;;;;;11.18;6.55;;;;;;;11.27;42.33;100353.59;2009722;80;20184;-72
2021/03/23 09:59:24;;;;;;;13.93;6.68;;;;;;;10.84;43.74;100358.41;2009929;80;20253;-72
2021/03/23 10:02:36;;;;;;;9.70;6.36;;;;;;;10.37;43.68;100352.69;2009147;78;22770;-72
2021/03/23 10:05:39;;;;;;;8.65;5.94;;;;;;;10.28;45.96;100342.22;2009829;80;20192;-73
2021/03/23 10:09:04;;;;;;;9.46;5.89;;;;;;;10.82;46.33;100341.06;2010248;80;20725;-72
2021/03/23 10:12:06;;;;;;;8.63;5.96;;;;;;;11.24;43.41;100342.31;2009829;80;20205;-72
2021/03/23 10:15:39;;;;;;;11.24;5.85;;;;;;;11.45;42.62;100325.13;2009301;80;20180;-72
2021/03/23 10:18:41;;;;;;;9.21;5.72;;;;;;;11.92;43.05;100318.53;2011388;80;20258;-72
2021/03/23 10:21:49;;;;;;;8.86;5.53;;;;;;;12.19;42.22;100321.22;2010246;80;20198;-73
2021/03/23 10:24:53;;;;;;;7.46;5.36;;;;;;;12.57;42.99;100320.50;2009713;80;20196;-71
2021/03/23 10:27:59;;;;;;;9.30;5.26;;;;;;;12.76;41.83;100321.41;2009402;80;20194;-71
2021/03/23 10:31:07;;;;;;;11.86;5.96;;;;;;;12.99;41.31;100306.66;2008835;78;22691;-71
2021/03/23 10:34:19;;;;;;;8.36;5.61;;;;;;;13.36;40.70;100312.78;2009887;80;20201;-71
2021/03/23 10:37:21;;;;;;;11.00;5.71;;;;;;;13.35;39.75;100311.03;2010503;80;20271;-71
2021/03/23 10:40:34;;;;;;;10.24;6.13;;;;;;;13.37;39.93;100308.44;2010673;80;20184;-71
2021/03/23 10:43:41;;;;;;;9.59;6.71;;;;;;;13.29;40.57;100306.72;2011055;80;20184;-71
2021/03/23 10:46:44;;;;;;;11.89;6.88;;;;;;;13.14;39.45;100298.84;2009683;78;24666;-73
2021/03/23 10:49:46;;;;;;;8.20;5.78;;;;;;;13.07;39.12;100297.09;2010930;80;20220;-72
2021/03/23 10:52:50;;;;;;;10.10;6.04;;;;;;;13.08;41.49;100298.81;2010506;80;20180;-71
2021/03/23 10:55:52;;;;;;;13.16;6.03;;;;;;;13.29;40.78;100287.59;2014382;80;20232;-72
2021/03/23 10:59:07;;;;;;;8.13;6.19;;;;;;;13.41;39.97;100284.06;2010724;80;20168;-72
2021/03/23 11:02:19;;;;;;;11.13;6.60;;;;;;;13.54;38.95;100278.81;2010442;78;20759;-73
2021/03/23 11:05:23;;;;;;;10.06;6.74;;;;;;;13.56;40.00;100281.44;2012206;80;20208;-72
2021/03/23 11:08:25;;;;;;;12.23;6.60;;;;;;;13.97;39.60;100275.22;2012821;80;20638;-72
2021/03/23 11:11:29;;;;;;;8.73;6.31;;;;;;;14.05;38.32;100278.66;2012064;80;20232;-73
2021/03/23 11:14:30;;;;;;;11.29;6.40;;;;;;;14.13;38.29;100277.75;2011569;80;20181;-72
2021/03/23 11:17:43;;;;;;;11.81;6.53;;;;;;;14.20;38.44;100276.00;2011559;77;20200;-73
2021/03/23 11:20:47;;;;;;;9.66;6.36;;;;;;;13.89;37.62;100280.47;2012294;80;20172;-72
2021/03/23 11:23:51;;;;;;;11.51;6.15;;;;;;;13.80;37.96;100276.13;2012369;80;20954;-73
2021/03/23 11:26:53;;;;;;;8.04;5.69;;;;;;;13.76;38.12;100270.94;2012018;80;20214;-72
2021/03/23 11:29:57;;;;;;;15.94;6.81;;;;;;;13.87;38.62;100267.44;2012875;80;20194;-72
2021/03/23 11:32:58;;;;;;;10.49;6.44;;;;;;;13.95;39.09;100267.38;2010953;78;20311;-73
2021/03/23 11:36:01;;;;;;;9.61;6.35;;;;;;;14.11;38.39;100262.97;2011954;80;20646;-73
2021/03/23 11:39:04;;;;;;;10.63;5.78;;;;;;;14.24;37.99;100258.56;2012321;80;20642;-73
2021/03/23 11:42:12;;;;;;;9.23;5.59;;;;;;;14.42;38.10;100256.69;2012520;80;20224;-73
2021/03/23 11:45:38;;;;;;;11.70;6.15;;;;;;;14.26;38.20;100259.41;2011614;78;20442;-72
2021/03/23 11:48:45;;;;;;;9.45;5.91;;;;;;;14.33;37.56;100256.75;2011962;80;20185;-72
2021/03/23 11:51:47;;;;;;;11.27;5.78;;;;;;;14.31;37.87;100262.84;2012329;80;20204;-72
2021/03/23 11:54:49;;;;;;;7.76;5.57;;;;;;;13.77;37.17;100255.25;2011879;80;20205;-71
2021/03/23 11:57:51;;;;;;;9.86;5.85;;;;;;;13.98;38.95;100245.59;2012270;80;21003;-71
2021/03/23 12:00:53;;;;;;;9.11;6.64;;;;;;;14.16;37.59;100248.13;2011549;78;21310;-73
2021/03/23 12:03:55;;;;;;;11.55;5.51;;;;;;;14.25;36.94;100240.25;2011914;80;20226;-72
2021/03/23 12:07:03;;;;;;;7.86;5.44;;;;;;;14.40;38.41;100242.78;2012019;80;20222;-73
2021/03/23 12:10:13;;;;;;;8.07;5.53;;;;;;;14.20;37.73;100236.81;2012481;80;20293;-71
2021/03/23 12:13:24;;;;;;;11.35;5.28;;;;;;;14.24;37.61;100229.81;2011736;80;20168;-71
2021/03/23 12:16:56;;;;;;;9.79;5.21;;;;;;;14.22;38.66;100227.22;2010725;78;20210;-72
2021/03/23 12:20:04;;;;;;;10.11;5.89;;;;;;;14.05;38.87;100227.31;2011530;80;20207;-72
2021/03/23 12:23:09;;;;;;;6.70;5.65;;;;;;;13.98;38.85;100217.75;2011719;80;20434;-72
2021/03/23 12:26:11;;;;;;;11.35;5.31;;;;;;;14.39;37.74;100212.31;2011823;80;20627;-71
2021/03/23 12:29:13;;;;;;;10.05;5.61;;;;;;;14.50;37.64;100207.03;2012794;80;20617;-71
2021/03/23 12:32:16;;;;;;;10.75;6.05;;;;;;;14.77;36.86;100200.72;2011372;78;21319;-72
2021/03/23 12:35:23;;;;;;;10.51;7.03;;;;;;;14.93;36.74;100204.94;2011528;80;20188;-71
2021/03/23 12:38:24;;;;;;;12.11;6.11;;;;;;;14.87;35.57;100199.75;2010162;80;20254;-72
2021/03/23 12:41:34;;;;;;;11.54;5.84;;;;;;;14.72;36.15;100199.88;2010805;80;20196;-72
2021/03/23 12:44:36;;;;;;;7.85;5.18;;;;;;;14.61;36.62;100193.88;2010622;80;20184;-72
2021/03/23 12:47:38;;;;;;;9.40;5.74;;;;;;;14.74;36.90;100203.38;2009053;77;20408;-72
2021/03/23 12:50:40;;;;;;;10.30;5.54;;;;;;;15.03;36.61;100196.13;2011464;80;20206;-72
2021/03/23 12:53:42;;;;;;;9.76;5.85;;;;;;;15.28;36.98;100186.28;2011846;80;20290;-72
2021/03/23 12:56:44;;;;;;;9.70;5.45;;;;;;;15.36;35.59;100178.34;2009782;80;20244;-72
2021/03/23 12:59:48;;;;;;;9.43;5.56;;;;;;;15.32;36.18;100187.13;2009914;80;20164;-72
2021/03/23 13:02:50;;;;;;;9.60;6.43;;;;;;;15.45;34.70;100180.00;2009563;78;21435;-72
2021/03/23 13:05:54;;;;;;;8.24;5.63;;;;;;;15.49;35.71;100177.31;2009842;80;20188;-72
2021/03/23 13:08:57;;;;;;;10.49;6.04;;;;;;;15.26;35.03;100182.81;2010288;80;20202;-71
2021/03/23 13:12:02;;;;;;;11.20;6.15;;;;;;;15.17;35.54;100171.56;2010410;80;20245;-71
2021/03/23 13:15:06;;;;;;;17.64;10.39;;;;;;;15.41;35.99;100171.28;2012205;80;20247;-72
2021/03/23 13:18:13;;;;;;;10.35;5.81;;;;;;;15.41;35.67;100166.94;2009330;77;20894;-72
2021/03/23 13:21:25;;;;;;;9.10;5.61;;;;;;;15.21;36.20;100168.91;2009838;80;20200;-72
2021/03/23 13:24:35;;;;;;;7.86;5.44;;;;;;;15.18;36.29;100166.31;2008545;80;20180;-71
2021/03/23 13:27:37;;;;;;;11.74;5.10;;;;;;;14.80;35.60;100157.13;2007641;80;20259;-72
2021/03/23 13:30:39;;;;;;;8.46;5.00;;;;;;;14.52;36.32;100158.22;2007573;78;20562;-72
2021/03/23 13:33:43;;;;;;;8.55;5.29;;;;;;;14.38;37.27;100155.72;2007285;80;20180;-71
2021/03/23 13:36:47;;;;;;;9.51;5.35;;;;;;;14.57;37.85;100153.84;2008236;80;20194;-71
2021/03/23 13:39:53;;;;;;;9.74;5.70;;;;;;;14.50;38.05;100142.56;2008704;80;20782;-71
2021/03/23 13:42:56;;;;;;;11.76;5.41;;;;;;;14.66;38.52;100148.53;2008856;80;20216;-71
2021/03/23 13:46:07;;;;;;;8.89;5.64;;;;;;;14.73;37.09;100147.59;2005917;77;24643;-71
2021/03/23 13:49:11;;;;;;;6.70;4.90;;;;;;;14.94;36.52;100148.28;2008246;80;20196;-72
2021/03/23 13:52:19;;;;;;;10.44;5.50;;;;;;;15.37;37.32;100146.06;2009699;80;20340;-71
2021/03/23 13:55:25;;;;;;;7.68;4.57;;;;;;;15.47;36.06;100138.97;2007575;80;20184;-72
2021/03/23 13:58:27;;;;;;;7.66;4.66;;;;;;;15.61;36.46;100130.06;2007889;80;20717;-73
2021/03/23 14:01:29;;;;;;;9.71;4.59;;;;;;;15.89;36.05;100125.34;2007143;78;21941;-72
2021/03/23 14:04:30;;;;;;;8.20;5.18;;;;;;;16.30;35.63;100126.44;2008393;80;20180;-72
2021/03/23 14:07:39;;;;;;;8.01;4.40;;;;;;;16.22;34.50;100120.47;2007984;80;20228;-71
2021/03/23 14:10:44;;;;;;;7.45;4.46;;;;;;;15.93;34.56;100118.28;2007975;80;20253;-72
2021/03/23 14:13:46;;;;;;;7.84;4.72;;;;;;;15.94;35.55;100120.88;2009375;80;20206;-71
2021/03/23 14:16:48;;;;;;;8.96;5.25;;;;;;;15.88;34.72;100117.50;2008637;77;24066;-71
2021/03/23 14:19:52;;;;;;;7.65;5.00;;;;;;;15.60;35.14;100112.63;2008684;80;20988;-72
2021/03/23 14:22:59;;;;;;;9.01;5.14;;;;;;;15.35;35.67;100112.06;2008471;80;20242;-71
2021/03/23 14:26:01;;;;;;;10.10;4.75;;;;;;;15.17;35.87;100109.66;2007886;80;20256;-72
2021/03/23 14:29:03;;;;;;;6.71;4.55;;;;;;;14.85;35.86;100107.38;2007936;80;20211;-73
2021/03/23 14:32:06;;;;;;;8.27;4.63;;;;;;;14.86;35.20;100109.13;2007247;78;53778;-71
2021/03/23 14:35:09;;;;;;;6.76;4.49;;;;;;;14.72;36.53;100105.75;2008329;80;20234;-72
2021/03/23 14:38:22;;;;;;;7.45;3.83;;;;;;;15.10;37.01;100108.00;2008922;80;20703;-71